sensor_id;sensor_type;location;lat;lon;timestamp;pressure;altitude;pressure_sealevel;temperature;humidity
69593;BME280;56796;50.122;14.468;2024-03-22T00:08:10;984.94;;;7.99;83.91
69593;BME280;56796;50.122;14.468;2024-03-22T00:27:33;984.86;;;8.03;84.26
69593;BME280;56796;50.122;14.468;2024-03-22T00:46:52;984.7;;;8.29;84.12
69593;BME280;56796;50.122;14.468;2024-03-22T01:06:19;984.55;;;8.39;84.38
69593;BME280;56796;50.122;14.468;2024-03-22T01:25:46;984.62;;;8.35;85.06
69593;BME280;56796;50.122;14.468;2024-03-22T01:45:12;984.43;;;8.41;84.85
69593;BME280;56796;50.122;14.468;2024-03-22T02:04:40;984.25;;;8.49;84.36
69593;BME280;56796;50.122;14.468;2024-03-22T02:24:07;984.05;;;8.56;84.04
69593;BME280;56796;50.122;14.468;2024-03-22T02:43:33;983.58;;;8.33;85.12
69593;BME280;56796;50.122;14.468;2024-03-22T03:02:58;983.49;;;8.39;85.38
69593;BME280;56796;50.122;14.468;2024-03-22T03:22:28;983.21;;;8.31;85.42
69593;BME280;56796;50.122;14.468;2024-03-22T03:41:47;983.16;;;8.33;85.73
69593;BME280;56796;50.122;14.468;2024-03-22T04:01:13;983.11;;;8.2;86.54
69593;BME280;56796;50.122;14.468;2024-03-22T04:20:39;983.01;;;8.08;87.6
69593;BME280;56796;50.122;14.468;2024-03-22T04:40:05;983.04;;;7.98;88.43
69593;BME280;56796;50.122;14.468;2024-03-22T04:59:31;982.9;;;7.8;89.4
69593;BME280;56796;50.122;14.468;2024-03-22T05:18:57;982.94;;;7.61;89.5
69593;BME280;56796;50.122;14.468;2024-03-22T05:38:24;983.04;;;7.61;88.47
69593;BME280;56796;50.122;14.468;2024-03-22T05:57:50;982.84;;;7.69;87.27
69593;BME280;56796;50.122;14.468;2024-03-22T06:17:18;982.83;;;7.98;86.04
69593;BME280;56796;50.122;14.468;2024-03-22T06:36:47;982.71;;;8.82;83.16
69593;BME280;56796;50.122;14.468;2024-03-22T06:56:18;982.57;;;11.06;76.1
69593;BME280;56796;50.122;14.468;2024-03-22T07:15:46;982.54;;;10.27;75.18
69593;BME280;56796;50.122;14.468;2024-03-22T07:35:12;982.46;;;10.71;73.14
69593;BME280;56796;50.122;14.468;2024-03-22T07:54:45;982.07;;;13.97;65.18
69593;BME280;56796;50.122;14.468;2024-03-22T08:14:20;981.94;;;15.44;58.29
69593;BME280;56796;50.122;14.468;2024-03-22T08:33:54;981.81;;;16.45;55.56
69593;BME280;56796;50.122;14.468;2024-03-22T08:53:25;981.73;;;14.8;58.13
69593;BME280;56796;50.122;14.468;2024-03-22T09:12:54;981.32;;;15.78;55.17
69593;BME280;56796;50.122;14.468;2024-03-22T09:32:22;981.16;;;17.91;50.44
69593;BME280;56796;50.122;14.468;2024-03-22T09:51:53;981.17;;;16.12;50.55
69593;BME280;56796;50.122;14.468;2024-03-22T10:11:08;980.9;;;17.06;48.54
69593;BME280;56796;50.122;14.468;2024-03-22T10:30:37;980.8;;;17.21;46.7
69593;BME280;56796;50.122;14.468;2024-03-22T10:50:01;980.49;;;16.14;50.48
69593;BME280;56796;50.122;14.468;2024-03-22T11:09:26;980.35;;;16.35;43.75
69593;BME280;56796;50.122;14.468;2024-03-22T11:28:53;980.16;;;17.03;45.09
69593;BME280;56796;50.122;14.468;2024-03-22T11:48:22;979.77;;;18.18;45.4
69593;BME280;56796;50.122;14.468;2024-03-22T12:07:48;979.53;;;15.53;51.07
69593;BME280;56796;50.122;14.468;2024-03-22T12:27:11;979.13;;;16.98;49.44
69593;BME280;56796;50.122;14.468;2024-03-22T12:46:43;978.77;;;18.16;48.01
69593;BME280;56796;50.122;14.468;2024-03-22T13:06:14;978.47;;;19.59;44.18
69593;BME280;56796;50.122;14.468;2024-03-22T13:25:43;978.21;;;19;45.02
69593;BME280;56796;50.122;14.468;2024-03-22T13:45:09;977.97;;;18.59;46.48
69593;BME280;56796;50.122;14.468;2024-03-22T14:04:29;977.73;;;17.39;48.65
69593;BME280;56796;50.122;14.468;2024-03-22T14:23:54;977.45;;;17.16;48.78
69593;BME280;56796;50.122;14.468;2024-03-22T14:43:16;977.21;;;16.85;46.48
69593;BME280;56796;50.122;14.468;2024-03-22T15:02:42;976.89;;;17.39;45.41
69593;BME280;56796;50.122;14.468;2024-03-22T15:22:08;976.73;;;16.32;47.01
69593;BME280;56796;50.122;14.468;2024-03-22T15:41:32;976.63;;;15.86;47.86
69593;BME280;56796;50.122;14.468;2024-03-22T16:00:57;976.49;;;15.43;48.84
69593;BME280;56796;50.122;14.468;2024-03-22T16:20:22;976.46;;;15.02;49.76
69593;BME280;56796;50.122;14.468;2024-03-22T16:39:46;976.34;;;14.85;51.11
69593;BME280;56796;50.122;14.468;2024-03-22T16:59:12;976.35;;;14.57;54.07
69593;BME280;56796;50.122;14.468;2024-03-22T17:18:37;976.21;;;14.24;55.94
69593;BME280;56796;50.122;14.468;2024-03-22T17:38:04;976.25;;;13.97;57.24
69593;BME280;56796;50.122;14.468;2024-03-22T17:57:28;976.26;;;13.79;58.07
69593;BME280;56796;50.122;14.468;2024-03-22T18:16:55;976.08;;;13.64;58.99
69593;BME280;56796;50.122;14.468;2024-03-22T18:36:22;975.92;;;13.55;59.99
69593;BME280;56796;50.122;14.468;2024-03-22T18:55:49;975.65;;;13.45;60.92
69593;BME280;56796;50.122;14.468;2024-03-22T19:15:16;975.4;;;13.36;61.46
69593;BME280;56796;50.122;14.468;2024-03-22T19:34:43;975.25;;;13.35;62.36
69593;BME280;56796;50.122;14.468;2024-03-22T19:54:09;975.01;;;13.28;64.11
69593;BME280;56796;50.122;14.468;2024-03-22T20:13:38;974.9;;;13.3;65.91
69593;BME280;56796;50.122;14.468;2024-03-22T20:33:02;974.8;;;13.16;68.55
